sensor_id;sensor_type;location;lat;lon;timestamp;P1;durP1;ratioP1;P2;durP2;ratioP2
32786;SDS011;19139;49.372;8.580;2023-08-17T00:01:31;2.60;;;1.40;;
32786;SDS011;19139;49.372;8.580;2023-08-17T00:03:58;2.47;;;1.20;;
32786;SDS011;19139;49.372;8.580;2023-08-17T00:06:25;1.97;;;1.20;;
32786;SDS011;19139;49.372;8.580;2023-08-17T00:08:52;1.87;;;1.47;;
32786;SDS011;19139;49.372;8.580;2023-08-17T00:11:18;2.57;;;1.53;;
32786;SDS011;19139;49.372;8.580;2023-08-17T00:13:45;2.77;;;1.73;;
32786;SDS011;19139;49.372;8.580;2023-08-17T00:16:12;1.57;;;1.47;;
32786;SDS011;19139;49.372;8.580;2023-08-17T00:18:38;2.50;;;1.40;;
32786;SDS011;19139;49.372;8.580;2023-08-17T00:21:05;2.50;;;1.60;;
32786;SDS011;19139;49.372;8.580;2023-08-17T00:23:32;2.20;;;1.40;;
32786;SDS011;19139;49.372;8.580;2023-08-17T00:25:59;2.47;;;1.60;;
32786;SDS011;19139;49.372;8.580;2023-08-17T00:28:25;2.77;;;1.23;;
32786;SDS011;19139;49.372;8.580;2023-08-17T00:30:52;2.47;;;1.40;;
32786;SDS011;19139;49.372;8.580;2023-08-17T00:33:19;2.53;;;1.50;;
32786;SDS011;19139;49.372;8.580;2023-08-17T00:35:45;2.80;;;1.40;;
32786;SDS011;19139;49.372;8.580;2023-08-17T00:38:12;2.13;;;1.60;;
32786;SDS011;19139;49.372;8.580;2023-08-17T00:40:39;2.57;;;1.70;;
32786;SDS011;19139;49.372;8.580;2023-08-17T00:43:07;3.43;;;1.93;;
32786;SDS011;19139;49.372;8.580;2023-08-17T00:45:33;3.00;;;1.70;;
32786;SDS011;19139;49.372;8.580;2023-08-17T00:48:01;2.80;;;1.67;;
32786;SDS011;19139;49.372;8.580;2023-08-17T00:50:29;2.97;;;1.60;;
32786;SDS011;19139;49.372;8.580;2023-08-17T00:52:56;2.40;;;1.97;;
32786;SDS011;19139;49.372;8.580;2023-08-17T00:55:23;2.93;;;1.63;;
32786;SDS011;19139;49.372;8.580;2023-08-17T00:57:50;2.00;;;1.80;;
32786;SDS011;19139;49.372;8.580;2023-08-17T01:00:19;2.40;;;1.60;;
32786;SDS011;19139;49.372;8.580;2023-08-17T01:02:46;3.83;;;1.60;;
32786;SDS011;19139;49.372;8.580;2023-08-17T01:05:13;2.30;;;1.50;;
32786;SDS011;19139;49.372;8.580;2023-08-17T01:07:40;2.23;;;1.67;;
32786;SDS011;19139;49.372;8.580;2023-08-17T01:10:06;1.97;;;1.60;;
32786;SDS011;19139;49.372;8.580;2023-08-17T01:12:38;3.13;;;1.87;;
32786;SDS011;19139;49.372;8.580;2023-08-17T01:15:14;2.57;;;1.67;;
32786;SDS011;19139;49.372;8.580;2023-08-17T01:20:14;2.67;;;1.90;;
32786;SDS011;19139;49.372;8.580;2023-08-17T01:22:45;3.80;;;1.80;;
32786;SDS011;19139;49.372;8.580;2023-08-17T01:25:12;2.53;;;2.17;;
32786;SDS011;19139;49.372;8.580;2023-08-17T01:27:43;3.40;;;1.70;;
32786;SDS011;19139;49.372;8.580;2023-08-17T01:30:11;3.03;;;1.73;;
32786;SDS011;19139;49.372;8.580;2023-08-17T01:35:37;1.77;;;1.60;;
32786;SDS011;19139;49.372;8.580;2023-08-17T01:38:09;2.00;;;1.53;;
32786;SDS011;19139;49.372;8.580;2023-08-17T01:40:40;5.67;;;2.97;;
32786;SDS011;19139;49.372;8.580;2023-08-17T01:43:08;2.83;;;2.47;;
32786;SDS011;19139;49.372;8.580;2023-08-17T01:45:37;3.00;;;2.00;;
32786;SDS011;19139;49.372;8.580;2023-08-17T01:48:04;4.87;;;2.17;;
32786;SDS011;19139;49.372;8.580;2023-08-17T01:50:31;3.23;;;1.80;;
32786;SDS011;19139;49.372;8.580;2023-08-17T01:52:57;3.83;;;2.20;;
32786;SDS011;19139;49.372;8.580;2023-08-17T01:55:24;3.13;;;1.80;;
32786;SDS011;19139;49.372;8.580;2023-08-17T01:57:51;3.33;;;1.80;;
32786;SDS011;19139;49.372;8.580;2023-08-17T02:00:18;5.87;;;2.03;;
32786;SDS011;19139;49.372;8.580;2023-08-17T02:02:45;3.03;;;1.63;;
32786;SDS011;19139;49.372;8.580;2023-08-17T02:05:12;3.50;;;1.90;;
32786;SDS011;19139;49.372;8.580;2023-08-17T02:07:39;3.13;;;1.70;;
32786;SDS011;19139;49.372;8.580;2023-08-17T02:10:05;3.40;;;1.63;;
32786;SDS011;19139;49.372;8.580;2023-08-17T02:12:32;2.57;;;1.53;;
32786;SDS011;19139;49.372;8.580;2023-08-17T02:14:59;2.30;;;1.80;;
32786;SDS011;19139;49.372;8.580;2023-08-17T02:17:26;2.73;;;1.90;;
32786;SDS011;19139;49.372;8.580;2023-08-17T02:19:53;3.33;;;1.83;;
32786;SDS011;19139;49.372;8.580;2023-08-17T02:22:20;2.93;;;1.87;;
32786;SDS011;19139;49.372;8.580;2023-08-17T02:24:47;5.57;;;1.90;;
32786;SDS011;19139;49.372;8.580;2023-08-17T02:27:13;2.40;;;2.20;;
32786;SDS011;19139;49.372;8.580;2023-08-17T02:29:40;3.43;;;1.77;;
32786;SDS011;19139;49.372;8.580;2023-08-17T02:32:07;2.37;;;1.93;;
32786;SDS011;19139;49.372;8.580;2023-08-17T02:34:33;3.40;;;2.33;;
32786;SDS011;19139;49.372;8.580;2023-08-17T02:37:00;4.40;;;2.20;;
32786;SDS011;19139;49.372;8.580;2023-08-17T02:39:27;2.20;;;1.93;;
32786;SDS011;19139;49.372;8.580;2023-08-17T02:41:53;2.83;;;2.13;;
32786;SDS011;19139;49.372;8.580;2023-08-17T02:44:20;2.83;;;2.00;;
32786;SDS011;19139;49.372;8.580;2023-08-17T02:46:47;3.37;;;2.13;;
32786;SDS011;19139;49.372;8.580;2023-08-17T02:49:13;3.63;;;2.47;;
32786;SDS011;19139;49.372;8.580;2023-08-17T02:51:40;5.80;;;2.50;;
32786;SDS011;19139;49.372;8.580;2023-08-17T02:54:07;2.77;;;2.57;;
32786;SDS011;19139;49.372;8.580;2023-08-17T02:56:33;2.57;;;2.30;;
32786;SDS011;19139;49.372;8.580;2023-08-17T02:59:00;2.50;;;2.30;;
32786;SDS011;19139;49.372;8.580;2023-08-17T03:01:26;2.63;;;2.10;;
32786;SDS011;19139;49.372;8.580;2023-08-17T03:03:53;3.47;;;2.40;;
32786;SDS011;19139;49.372;8.580;2023-08-17T03:06:20;4.53;;;2.20;;
32786;SDS011;19139;49.372;8.580;2023-08-17T03:08:46;3.13;;;2.00;;
32786;SDS011;19139;49.372;8.580;2023-08-17T03:11:13;3.47;;;2.60;;
32786;SDS011;19139;49.372;8.580;2023-08-17T03:13:40;2.33;;;2.13;;
32786;SDS011;19139;49.372;8.580;2023-08-17T03:16:06;3.33;;;2.40;;
32786;SDS011;19139;49.372;8.580;2023-08-17T03:18:33;2.83;;;2.30;;
32786;SDS011;19139;49.372;8.580;2023-08-17T03:21:00;2.57;;;2.33;;
32786;SDS011;19139;49.372;8.580;2023-08-17T03:23:26;4.33;;;1.90;;
32786;SDS011;19139;49.372;8.580;2023-08-17T03:25:53;5.60;;;2.53;;
32786;SDS011;19139;49.372;8.580;2023-08-17T03:28:20;3.43;;;3.00;;
32786;SDS011;19139;49.372;8.580;2023-08-17T03:30:47;2.80;;;2.50;;
32786;SDS011;19139;49.372;8.580;2023-08-17T03:33:13;3.47;;;2.37;;
32786;SDS011;19139;49.372;8.580;2023-08-17T03:35:40;4.53;;;2.33;;
32786;SDS011;19139;49.372;8.580;2023-08-17T03:38:07;3.60;;;2.60;;
32786;SDS011;19139;49.372;8.580;2023-08-17T03:40:33;3.50;;;2.67;;
32786;SDS011;19139;49.372;8.580;2023-08-17T03:43:00;6.13;;;3.20;;
32786;SDS011;19139;49.372;8.580;2023-08-17T03:45:27;3.10;;;2.80;;
32786;SDS011;19139;49.372;8.580;2023-08-17T03:47:53;3.70;;;3.00;;
32786;SDS011;19139;49.372;8.580;2023-08-17T03:50:20;4.80;;;3.43;;
32786;SDS011;19139;49.372;8.580;2023-08-17T03:52:46;5.30;;;2.93;;
32786;SDS011;19139;49.372;8.580;2023-08-17T03:55:13;4.30;;;3.20;;
32786;SDS011;19139;49.372;8.580;2023-08-17T03:57:40;4.27;;;3.00;;
32786;SDS011;19139;49.372;8.580;2023-08-17T04:00:06;3.90;;;2.87;;
32786;SDS011;19139;49.372;8.580;2023-08-17T04:02:34;3.37;;;3.07;;
32786;SDS011;19139;49.372;8.580;2023-08-17T04:05:00;4.40;;;2.90;;
32786;SDS011;19139;49.372;8.580;2023-08-17T04:07:27;4.00;;;3.07;;
32786;SDS011;19139;49.372;8.580;2023-08-17T04:09:54;3.77;;;2.80;;
32786;SDS011;19139;49.372;8.580;2023-08-17T04:12:21;3.30;;;2.00;;
32786;SDS011;19139;49.372;8.580;2023-08-17T04:14:48;3.90;;;2.27;;
32786;SDS011;19139;49.372;8.580;2023-08-17T04:17:15;4.33;;;2.60;;
32786;SDS011;19139;49.372;8.580;2023-08-17T04:19:42;5.43;;;2.60;;
32786;SDS011;19139;49.372;8.580;2023-08-17T04:22:08;3.07;;;2.20;;
32786;SDS011;19139;49.372;8.580;2023-08-17T04:24:36;2.97;;;2.67;;
32786;SDS011;19139;49.372;8.580;2023-08-17T04:27:02;3.30;;;3.00;;
32786;SDS011;19139;49.372;8.580;2023-08-17T04:29:30;4.50;;;3.60;;
32786;SDS011;19139;49.372;8.580;2023-08-17T04:31:58;4.60;;;3.17;;
32786;SDS011;19139;49.372;8.580;2023-08-17T04:34:25;4.80;;;4.10;;
32786;SDS011;19139;49.372;8.580;2023-08-17T04:36:51;4.07;;;3.30;;
32786;SDS011;19139;49.372;8.580;2023-08-17T04:39:18;3.63;;;3.03;;
32786;SDS011;19139;49.372;8.580;2023-08-17T04:41:45;4.57;;;3.80;;
32786;SDS011;19139;49.372;8.580;2023-08-17T04:44:11;4.40;;;3.63;;
32786;SDS011;19139;49.372;8.580;2023-08-17T04:46:38;6.87;;;3.67;;
32786;SDS011;19139;49.372;8.580;2023-08-17T04:49:05;3.67;;;3.23;;
32786;SDS011;19139;49.372;8.580;2023-08-17T04:51:31;7.07;;;3.90;;
32786;SDS011;19139;49.372;8.580;2023-08-17T04:53:58;4.97;;;3.80;;
32786;SDS011;19139;49.372;8.580;2023-08-17T04:56:25;4.30;;;3.70;;
32786;SDS011;19139;49.372;8.580;2023-08-17T04:58:52;5.30;;;3.73;;
32786;SDS011;19139;49.372;8.580;2023-08-17T05:01:19;5.10;;;4.20;;
32786;SDS011;19139;49.372;8.580;2023-08-17T05:03:46;6.87;;;4.43;;
32786;SDS011;19139;49.372;8.580;2023-08-17T05:06:13;7.33;;;4.13;;
32786;SDS011;19139;49.372;8.580;2023-08-17T05:08:39;7.27;;;4.40;;
32786;SDS011;19139;49.372;8.580;2023-08-17T05:11:06;6.27;;;4.27;;
32786;SDS011;19139;49.372;8.580;2023-08-17T05:13:32;6.33;;;4.93;;
32786;SDS011;19139;49.372;8.580;2023-08-17T05:15:59;5.47;;;4.97;;
32786;SDS011;19139;49.372;8.580;2023-08-17T05:18:26;6.77;;;6.03;;
32786;SDS011;19139;49.372;8.580;2023-08-17T05:20:53;7.90;;;6.30;;
32786;SDS011;19139;49.372;8.580;2023-08-17T05:23:20;8.20;;;6.77;;
32786;SDS011;19139;49.372;8.580;2023-08-17T05:25:47;10.27;;;7.73;;
32786;SDS011;19139;49.372;8.580;2023-08-17T05:28:14;8.97;;;7.17;;
32786;SDS011;19139;49.372;8.580;2023-08-17T05:30:40;8.93;;;7.60;;
32786;SDS011;19139;49.372;8.580;2023-08-17T05:33:07;11.53;;;8.30;;
32786;SDS011;19139;49.372;8.580;2023-08-17T05:35:34;9.37;;;7.67;;
32786;SDS011;19139;49.372;8.580;2023-08-17T05:38:00;9.97;;;7.60;;
32786;SDS011;19139;49.372;8.580;2023-08-17T05:40:29;11.03;;;8.10;;
32786;SDS011;19139;49.372;8.580;2023-08-17T05:42:56;12.07;;;8.37;;
32786;SDS011;19139;49.372;8.580;2023-08-17T05:45:23;10.80;;;6.47;;
32786;SDS011;19139;49.372;8.580;2023-08-17T05:47:50;9.73;;;7.53;;
32786;SDS011;19139;49.372;8.580;2023-08-17T05:50:17;7.47;;;6.17;;
32786;SDS011;19139;49.372;8.580;2023-08-17T05:52:44;9.23;;;5.73;;
32786;SDS011;19139;49.372;8.580;2023-08-17T05:55:10;8.17;;;6.40;;
32786;SDS011;19139;49.372;8.580;2023-08-17T05:57:37;9.23;;;6.57;;
32786;SDS011;19139;49.372;8.580;2023-08-17T06:00:04;7.13;;;5.37;;
32786;SDS011;19139;49.372;8.580;2023-08-17T06:02:31;7.17;;;6.47;;
32786;SDS011;19139;49.372;8.580;2023-08-17T06:04:58;7.23;;;6.37;;
32786;SDS011;19139;49.372;8.580;2023-08-17T06:07:24;7.60;;;5.80;;
32786;SDS011;19139;49.372;8.580;2023-08-17T06:09:51;6.93;;;5.80;;
32786;SDS011;19139;49.372;8.580;2023-08-17T06:12:18;7.63;;;5.07;;
32786;SDS011;19139;49.372;8.580;2023-08-17T06:14:45;5.20;;;4.20;;
32786;SDS011;19139;49.372;8.580;2023-08-17T06:17:12;4.93;;;4.10;;
32786;SDS011;19139;49.372;8.580;2023-08-17T06:19:38;6.00;;;4.80;;
32786;SDS011;19139;49.372;8.580;2023-08-17T06:22:06;5.83;;;4.67;;
32786;SDS011;19139;49.372;8.580;2023-08-17T06:24:32;6.40;;;5.07;;
32786;SDS011;19139;49.372;8.580;2023-08-17T06:26:59;5.73;;;4.57;;
32786;SDS011;19139;49.372;8.580;2023-08-17T06:29:26;6.40;;;5.13;;
32786;SDS011;19139;49.372;8.580;2023-08-17T06:31:52;6.30;;;5.43;;
32786;SDS011;19139;49.372;8.580;2023-08-17T06:34:21;6.80;;;5.20;;
32786;SDS011;19139;49.372;8.580;2023-08-17T06:36:57;5.47;;;4.60;;
32786;SDS011;19139;49.372;8.580;2023-08-17T06:39:25;5.73;;;4.67;;
32786;SDS011;19139;49.372;8.580;2023-08-17T06:41:51;6.23;;;5.03;;
32786;SDS011;19139;49.372;8.580;2023-08-17T06:44:18;6.40;;;4.50;;
32786;SDS011;19139;49.372;8.580;2023-08-17T06:46:45;7.70;;;5.07;;
32786;SDS011;19139;49.372;8.580;2023-08-17T06:49:12;6.30;;;5.30;;
32786;SDS011;19139;49.372;8.580;2023-08-17T06:51:39;5.80;;;4.20;;
32786;SDS011;19139;49.372;8.580;2023-08-17T06:54:07;7.40;;;5.57;;
32786;SDS011;19139;49.372;8.580;2023-08-17T06:56:35;6.10;;;4.97;;
32786;SDS011;19139;49.372;8.580;2023-08-17T06:59:02;7.03;;;4.40;;
32786;SDS011;19139;49.372;8.580;2023-08-17T07:01:29;6.83;;;5.13;;
32786;SDS011;19139;49.372;8.580;2023-08-17T07:03:55;5.57;;;4.43;;
32786;SDS011;19139;49.372;8.580;2023-08-17T07:06:23;7.10;;;5.63;;
32786;SDS011;19139;49.372;8.580;2023-08-17T07:08:50;7.80;;;5.77;;
32786;SDS011;19139;49.372;8.580;2023-08-17T07:11:18;7.33;;;5.60;;
32786;SDS011;19139;49.372;8.580;2023-08-17T07:13:45;7.00;;;5.30;;
32786;SDS011;19139;49.372;8.580;2023-08-17T07:16:12;7.30;;;5.53;;
32786;SDS011;19139;49.372;8.580;2023-08-17T07:18:39;8.23;;;4.77;;
32786;SDS011;19139;49.372;8.580;2023-08-17T07:21:06;8.10;;;5.40;;
32786;SDS011;19139;49.372;8.580;2023-08-17T07:23:33;7.80;;;5.50;;
32786;SDS011;19139;49.372;8.580;2023-08-17T07:25:59;8.73;;;6.47;;
32786;SDS011;19139;49.372;8.580;2023-08-17T07:28:27;7.93;;;5.40;;
32786;SDS011;19139;49.372;8.580;2023-08-17T07:30:54;7.93;;;6.40;;
32786;SDS011;19139;49.372;8.580;2023-08-17T07:33:20;8.40;;;6.07;;
32786;SDS011;19139;49.372;8.580;2023-08-17T07:35:47;9.20;;;6.63;;
32786;SDS011;19139;49.372;8.580;2023-08-17T07:38:14;7.67;;;5.93;;
32786;SDS011;19139;49.372;8.580;2023-08-17T07:40:40;8.10;;;6.10;;
32786;SDS011;19139;49.372;8.580;2023-08-17T07:43:09;7.00;;;5.93;;
32786;SDS011;19139;49.372;8.580;2023-08-17T07:45:35;7.17;;;5.20;;
32786;SDS011;19139;49.372;8.580;2023-08-17T07:48:02;6.07;;;4.90;;
32786;SDS011;19139;49.372;8.580;2023-08-17T07:50:29;6.57;;;5.80;;
32786;SDS011;19139;49.372;8.580;2023-08-17T07:52:56;8.07;;;6.50;;
32786;SDS011;19139;49.372;8.580;2023-08-17T07:55:22;6.73;;;5.57;;
32786;SDS011;19139;49.372;8.580;2023-08-17T07:57:49;7.50;;;5.53;;
32786;SDS011;19139;49.372;8.580;2023-08-17T08:00:16;7.77;;;5.53;;
32786;SDS011;19139;49.372;8.580;2023-08-17T08:02:42;8.90;;;6.00;;
32786;SDS011;19139;49.372;8.580;2023-08-17T08:05:09;7.97;;;4.90;;
32786;SDS011;19139;49.372;8.580;2023-08-17T08:07:36;6.07;;;5.30;;
32786;SDS011;19139;49.372;8.580;2023-08-17T08:10:03;6.20;;;5.23;;
32786;SDS011;19139;49.372;8.580;2023-08-17T08:12:30;6.73;;;5.53;;
32786;SDS011;19139;49.372;8.580;2023-08-17T08:14:57;6.83;;;5.60;;
32786;SDS011;19139;49.372;8.580;2023-08-17T08:17:23;7.03;;;5.57;;
32786;SDS011;19139;49.372;8.580;2023-08-17T08:19:50;6.43;;;5.00;;
32786;SDS011;19139;49.372;8.580;2023-08-17T08:22:17;6.67;;;4.80;;
32786;SDS011;19139;49.372;8.580;2023-08-17T08:24:44;5.43;;;4.57;;
32786;SDS011;19139;49.372;8.580;2023-08-17T08:27:10;6.40;;;5.60;;
32786;SDS011;19139;49.372;8.580;2023-08-17T08:29:37;7.53;;;5.00;;
32786;SDS011;19139;49.372;8.580;2023-08-17T08:32:04;5.33;;;4.17;;
32786;SDS011;19139;49.372;8.580;2023-08-17T08:34:30;6.50;;;4.47;;
32786;SDS011;19139;49.372;8.580;2023-08-17T08:36:57;4.77;;;4.27;;
32786;SDS011;19139;49.372;8.580;2023-08-17T08:39:27;4.80;;;3.33;;
32786;SDS011;19139;49.372;8.580;2023-08-17T08:41:54;5.03;;;4.00;;
32786;SDS011;19139;49.372;8.580;2023-08-17T08:44:21;4.30;;;3.90;;
32786;SDS011;19139;49.372;8.580;2023-08-17T08:46:48;5.63;;;4.63;;
32786;SDS011;19139;49.372;8.580;2023-08-17T08:49:20;5.33;;;4.53;;
32786;SDS011;19139;49.372;8.580;2023-08-17T08:51:50;6.17;;;5.20;;
32786;SDS011;19139;49.372;8.580;2023-08-17T08:54:20;7.87;;;5.20;;
32786;SDS011;19139;49.372;8.580;2023-08-17T08:57:01;4.63;;;3.90;;
32786;SDS011;19139;49.372;8.580;2023-08-17T08:59:33;4.37;;;3.97;;
32786;SDS011;19139;49.372;8.580;2023-08-17T09:02:01;4.80;;;4.30;;
32786;SDS011;19139;49.372;8.580;2023-08-17T09:04:29;5.03;;;4.53;;
32786;SDS011;19139;49.372;8.580;2023-08-17T09:06:56;8.23;;;4.33;;
32786;SDS011;19139;49.372;8.580;2023-08-17T09:09:23;6.90;;;4.57;;
32786;SDS011;19139;49.372;8.580;2023-08-17T09:11:55;5.90;;;4.20;;
32786;SDS011;19139;49.372;8.580;2023-08-17T09:14:22;5.07;;;4.60;;
32786;SDS011;19139;49.372;8.580;2023-08-17T09:16:48;6.70;;;4.57;;
32786;SDS011;19139;49.372;8.580;2023-08-17T09:19:16;5.00;;;4.20;;
32786;SDS011;19139;49.372;8.580;2023-08-17T09:21:43;6.40;;;4.57;;
32786;SDS011;19139;49.372;8.580;2023-08-17T09:24:16;4.67;;;4.27;;
32786;SDS011;19139;49.372;8.580;2023-08-17T09:26:43;8.50;;;4.37;;
32786;SDS011;19139;49.372;8.580;2023-08-17T09:29:16;5.87;;;4.07;;
32786;SDS011;19139;49.372;8.580;2023-08-17T09:31:44;5.87;;;3.93;;
32786;SDS011;19139;49.372;8.580;2023-08-17T09:34:11;5.57;;;3.67;;
32786;SDS011;19139;49.372;8.580;2023-08-17T09:36:42;3.90;;;3.40;;
32786;SDS011;19139;49.372;8.580;2023-08-17T09:39:11;5.50;;;4.50;;
32786;SDS011;19139;49.372;8.580;2023-08-17T09:41:43;5.57;;;3.90;;
32786;SDS011;19139;49.372;8.580;2023-08-17T09:44:10;8.20;;;4.03;;
32786;SDS011;19139;49.372;8.580;2023-08-17T09:46:37;6.30;;;3.73;;
32786;SDS011;19139;49.372;8.580;2023-08-17T09:49:05;3.90;;;3.33;;
32786;SDS011;19139;49.372;8.580;2023-08-17T09:51:32;5.37;;;3.57;;
32786;SDS011;19139;49.372;8.580;2023-08-17T09:53:58;3.80;;;3.40;;
32786;SDS011;19139;49.372;8.580;2023-08-17T09:56:26;4.73;;;3.50;;
32786;SDS011;19139;49.372;8.580;2023-08-17T09:58:53;5.60;;;4.03;;
32786;SDS011;19139;49.372;8.580;2023-08-17T10:01:21;5.00;;;3.53;;
32786;SDS011;19139;49.372;8.580;2023-08-17T10:03:49;4.17;;;3.40;;
32786;SDS011;19139;49.372;8.580;2023-08-17T10:06:19;4.50;;;3.77;;
32786;SDS011;19139;49.372;8.580;2023-08-17T10:08:53;4.00;;;3.20;;
32786;SDS011;19139;49.372;8.580;2023-08-17T10:11:23;4.67;;;3.77;;
32786;SDS011;19139;49.372;8.580;2023-08-17T10:13:55;6.03;;;3.50;;
32786;SDS011;19139;49.372;8.580;2023-08-17T10:16:29;5.17;;;3.40;;
32786;SDS011;19139;49.372;8.580;2023-08-17T10:19:43;4.00;;;3.67;;
32786;SDS011;19139;49.372;8.580;2023-08-17T10:25:05;4.90;;;3.73;;
32786;SDS011;19139;49.372;8.580;2023-08-17T10:27:34;3.97;;;3.53;;
32786;SDS011;19139;49.372;8.580;2023-08-17T10:30:01;5.73;;;3.60;;
32786;SDS011;19139;49.372;8.580;2023-08-17T10:32:28;4.00;;;3.60;;
32786;SDS011;19139;49.372;8.580;2023-08-17T10:34:55;4.63;;;3.37;;
32786;SDS011;19139;49.372;8.580;2023-08-17T10:37:24;4.07;;;3.23;;
32786;SDS011;19139;49.372;8.580;2023-08-17T10:39:51;4.20;;;3.47;;
32786;SDS011;19139;49.372;8.580;2023-08-17T10:42:32;4.03;;;3.60;;
32786;SDS011;19139;49.372;8.580;2023-08-17T10:45:02;4.30;;;3.60;;
32786;SDS011;19139;49.372;8.580;2023-08-17T10:47:48;5.77;;;3.00;;
32786;SDS011;19139;49.372;8.580;2023-08-17T10:50:21;3.50;;;3.20;;
32786;SDS011;19139;49.372;8.580;2023-08-17T10:52:49;4.53;;;3.70;;
32786;SDS011;19139;49.372;8.580;2023-08-17T10:55:35;3.63;;;3.10;;
32786;SDS011;19139;49.372;8.580;2023-08-17T10:58:08;4.30;;;3.40;;
32786;SDS011;19139;49.372;8.580;2023-08-17T11:00:40;3.93;;;3.53;;
32786;SDS011;19139;49.372;8.580;2023-08-17T11:03:18;3.83;;;3.40;;
32786;SDS011;19139;49.372;8.580;2023-08-17T11:05:55;3.67;;;3.27;;
32786;SDS011;19139;49.372;8.580;2023-08-17T11:08:32;4.20;;;3.47;;
32786;SDS011;19139;49.372;8.580;2023-08-17T11:11:12;4.20;;;2.87;;
32786;SDS011;19139;49.372;8.580;2023-08-17T11:13:40;4.57;;;3.37;;
32786;SDS011;19139;49.372;8.580;2023-08-17T11:16:12;3.73;;;2.97;;
32786;SDS011;19139;49.372;8.580;2023-08-17T11:18:44;3.23;;;2.63;;
32786;SDS011;19139;49.372;8.580;2023-08-17T11:21:11;3.97;;;3.23;;
32786;SDS011;19139;49.372;8.580;2023-08-17T11:23:45;3.60;;;3.30;;
32786;SDS011;19139;49.372;8.580;2023-08-17T11:26:12;3.40;;;3.10;;
32786;SDS011;19139;49.372;8.580;2023-08-17T11:28:42;3.73;;;3.20;;
32786;SDS011;19139;49.372;8.580;2023-08-17T11:31:11;4.73;;;3.57;;
32786;SDS011;19139;49.372;8.580;2023-08-17T11:33:39;4.00;;;3.13;;
32786;SDS011;19139;49.372;8.580;2023-08-17T11:36:07;3.40;;;3.10;;
32786;SDS011;19139;49.372;8.580;2023-08-17T11:38:36;4.23;;;2.93;;
32786;SDS011;19139;49.372;8.580;2023-08-17T11:41:04;3.50;;;3.20;;
32786;SDS011;19139;49.372;8.580;2023-08-17T11:43:32;3.13;;;2.83;;
32786;SDS011;19139;49.372;8.580;2023-08-17T11:45:59;4.70;;;3.57;;
32786;SDS011;19139;49.372;8.580;2023-08-17T11:48:27;3.73;;;3.40;;
32786;SDS011;19139;49.372;8.580;2023-08-17T11:50:55;4.07;;;3.37;;
32786;SDS011;19139;49.372;8.580;2023-08-17T11:53:21;3.23;;;2.93;;
32786;SDS011;19139;49.372;8.580;2023-08-17T11:55:49;3.30;;;3.00;;
32786;SDS011;19139;49.372;8.580;2023-08-17T11:58:35;3.60;;;2.77;;
32786;SDS011;19139;49.372;8.580;2023-08-17T12:01:22;3.33;;;3.03;;
32786;SDS011;19139;49.372;8.580;2023-08-17T12:03:49;3.40;;;3.10;;
32786;SDS011;19139;49.372;8.580;2023-08-17T12:06:16;5.03;;;3.30;;
32786;SDS011;19139;49.372;8.580;2023-08-17T12:08:46;5.17;;;3.87;;
32786;SDS011;19139;49.372;8.580;2023-08-17T12:11:17;3.30;;;3.00;;
32786;SDS011;19139;49.372;8.580;2023-08-17T12:13:51;5.00;;;3.50;;
32786;SDS011;19139;49.372;8.580;2023-08-17T12:16:19;3.77;;;3.30;;
32786;SDS011;19139;49.372;8.580;2023-08-17T12:18:50;3.50;;;2.80;;
32786;SDS011;19139;49.372;8.580;2023-08-17T12:21:21;5.23;;;2.80;;
32786;SDS011;19139;49.372;8.580;2023-08-17T12:23:49;3.50;;;3.20;;
32786;SDS011;19139;49.372;8.580;2023-08-17T12:26:19;3.47;;;3.17;;
32786;SDS011;19139;49.372;8.580;2023-08-17T12:28:49;3.23;;;2.93;;
32786;SDS011;19139;49.372;8.580;2023-08-17T12:31:20;4.07;;;3.50;;
32786;SDS011;19139;49.372;8.580;2023-08-17T12:33:48;3.40;;;3.10;;
32786;SDS011;19139;49.372;8.580;2023-08-17T12:36:15;3.50;;;3.20;;
32786;SDS011;19139;49.372;8.580;2023-08-17T12:38:44;3.23;;;2.93;;
32786;SDS011;19139;49.372;8.580;2023-08-17T12:41:12;4.80;;;3.40;;
32786;SDS011;19139;49.372;8.580;2023-08-17T12:43:38;3.37;;;3.17;;
32786;SDS011;19139;49.372;8.580;2023-08-17T12:46:05;3.47;;;3.17;;
32786;SDS011;19139;49.372;8.580;2023-08-17T12:48:31;3.67;;;3.20;;
32786;SDS011;19139;49.372;8.580;2023-08-17T12:51:01;3.33;;;2.90;;
32786;SDS011;19139;49.372;8.580;2023-08-17T12:53:30;4.20;;;2.57;;
32786;SDS011;19139;49.372;8.580;2023-08-17T12:55:57;3.23;;;2.93;;
32786;SDS011;19139;49.372;8.580;2023-08-17T12:58:24;3.50;;;2.90;;
32786;SDS011;19139;49.372;8.580;2023-08-17T13:00:51;3.23;;;2.93;;
32786;SDS011;19139;49.372;8.580;2023-08-17T13:03:20;3.10;;;2.80;;
32786;SDS011;19139;49.372;8.580;2023-08-17T13:05:47;3.40;;;2.90;;
32786;SDS011;19139;49.372;8.580;2023-08-17T13:08:14;3.20;;;2.90;;
32786;SDS011;19139;49.372;8.580;2023-08-17T13:10:41;4.10;;;3.80;;
32786;SDS011;19139;49.372;8.580;2023-08-17T13:13:07;3.47;;;2.90;;
32786;SDS011;19139;49.372;8.580;2023-08-17T13:15:34;3.67;;;2.80;;
32786;SDS011;19139;49.372;8.580;2023-08-17T13:18:01;3.13;;;2.83;;
32786;SDS011;19139;49.372;8.580;2023-08-17T13:20:28;3.20;;;2.90;;
32786;SDS011;19139;49.372;8.580;2023-08-17T13:22:55;3.10;;;2.80;;
32786;SDS011;19139;49.372;8.580;2023-08-17T13:25:22;3.77;;;3.47;;
32786;SDS011;19139;49.372;8.580;2023-08-17T13:27:49;3.00;;;2.70;;
32786;SDS011;19139;49.372;8.580;2023-08-17T13:30:15;3.87;;;3.03;;
32786;SDS011;19139;49.372;8.580;2023-08-17T13:32:42;3.83;;;2.83;;
32786;SDS011;19139;49.372;8.580;2023-08-17T13:35:11;3.30;;;2.93;;
32786;SDS011;19139;49.372;8.580;2023-08-17T13:37:40;3.47;;;3.10;;
32786;SDS011;19139;49.372;8.580;2023-08-17T13:40:07;3.37;;;3.00;;
32786;SDS011;19139;49.372;8.580;2023-08-17T13:42:34;3.43;;;3.13;;
32786;SDS011;19139;49.372;8.580;2023-08-17T13:45:02;4.83;;;3.60;;
32786;SDS011;19139;49.372;8.580;2023-08-17T13:47:29;5.70;;;3.40;;
32786;SDS011;19139;49.372;8.580;2023-08-17T13:49:56;4.63;;;3.47;;
32786;SDS011;19139;49.372;8.580;2023-08-17T13:52:24;5.27;;;3.70;;
32786;SDS011;19139;49.372;8.580;2023-08-17T13:54:51;7.37;;;3.97;;
32786;SDS011;19139;49.372;8.580;2023-08-17T13:57:18;5.23;;;4.00;;
32786;SDS011;19139;49.372;8.580;2023-08-17T13:59:45;4.30;;;3.90;;
32786;SDS011;19139;49.372;8.580;2023-08-17T14:02:11;4.53;;;3.70;;
32786;SDS011;19139;49.372;8.580;2023-08-17T14:04:38;4.23;;;3.83;;
32786;SDS011;19139;49.372;8.580;2023-08-17T14:07:04;5.10;;;4.00;;
32786;SDS011;19139;49.372;8.580;2023-08-17T14:09:31;4.63;;;3.63;;
32786;SDS011;19139;49.372;8.580;2023-08-17T14:11:58;4.27;;;3.63;;
32786;SDS011;19139;49.372;8.580;2023-08-17T14:14:26;4.00;;;3.63;;
32786;SDS011;19139;49.372;8.580;2023-08-17T14:16:52;4.57;;;3.80;;
32786;SDS011;19139;49.372;8.580;2023-08-17T14:19:19;4.37;;;3.67;;
32786;SDS011;19139;49.372;8.580;2023-08-17T14:21:46;4.50;;;3.90;;
32786;SDS011;19139;49.372;8.580;2023-08-17T14:24:12;3.70;;;3.33;;
32786;SDS011;19139;49.372;8.580;2023-08-17T14:26:39;4.90;;;4.00;;
32786;SDS011;19139;49.372;8.580;2023-08-17T14:29:06;4.20;;;3.80;;
32786;SDS011;19139;49.372;8.580;2023-08-17T14:31:32;3.83;;;3.53;;
32786;SDS011;19139;49.372;8.580;2023-08-17T14:33:59;3.87;;;3.30;;
32786;SDS011;19139;49.372;8.580;2023-08-17T14:36:31;6.23;;;3.47;;
32786;SDS011;19139;49.372;8.580;2023-08-17T14:38:58;5.33;;;4.20;;
32786;SDS011;19139;49.372;8.580;2023-08-17T14:41:25;3.73;;;3.33;;
32786;SDS011;19139;49.372;8.580;2023-08-17T14:43:59;4.10;;;3.20;;
32786;SDS011;19139;49.372;8.580;2023-08-17T14:46:28;5.03;;;3.90;;
32786;SDS011;19139;49.372;8.580;2023-08-17T14:48:55;3.87;;;3.47;;
32786;SDS011;19139;49.372;8.580;2023-08-17T14:51:23;3.97;;;3.20;;
32786;SDS011;19139;49.372;8.580;2023-08-17T14:53:56;4.73;;;3.67;;
32786;SDS011;19139;49.372;8.580;2023-08-17T14:56:23;4.07;;;3.67;;
32786;SDS011;19139;49.372;8.580;2023-08-17T14:58:49;4.00;;;3.70;;
32786;SDS011;19139;49.372;8.580;2023-08-17T15:01:16;4.67;;;3.67;;